createdAt,value
2022-11-11T00:03:05.245Z,101387.20
2022-11-11T00:05:51.477Z,101383.40
2022-11-11T00:08:38.079Z,101379.40
2022-11-11T00:11:24.219Z,101393.20
2022-11-11T00:14:10.344Z,101397.60
2022-11-11T00:17:15.366Z,101399.40
2022-11-11T00:20:24.199Z,101404.20
2022-11-11T00:23:40.889Z,101401.40
2022-11-11T00:26:44.050Z,101404.40
2022-11-11T00:29:30.253Z,101405.40
2022-11-11T00:32:31.229Z,101406.20
2022-11-11T00:35:36.420Z,101404.40
2022-11-11T00:38:42.160Z,101403.80
2022-11-11T00:41:28.711Z,101407.40
2022-11-11T00:44:15.205Z,101403.20
2022-11-11T00:47:20.543Z,101407.40
2022-11-11T00:50:36.061Z,101410.80
2022-11-11T00:53:27.514Z,101408.80
2022-11-11T00:56:14.787Z,101408.80
2022-11-11T00:59:01.710Z,101398.20
2022-11-11T01:01:48.248Z,101403.80
2022-11-11T01:04:35.378Z,101407.20
2022-11-11T01:07:21.556Z,101405.80
2022-11-11T01:10:08.676Z,101408.00
2022-11-11T01:13:12.373Z,101409.00
2022-11-11T01:16:03.833Z,101420.20
2022-11-11T01:18:52.635Z,101414.80
2022-11-11T01:21:38.964Z,101415.80
2022-11-11T01:24:25.698Z,101409.20
2022-11-11T01:27:12.352Z,101414.00
2022-11-11T01:29:58.615Z,101411.00
2022-11-11T01:32:44.733Z,101415.60
2022-11-11T01:35:31.639Z,101418.40
2022-11-11T01:38:18.229Z,101414.60
2022-11-11T01:41:42.713Z,101413.60
2022-11-11T01:44:49.308Z,101409.40
2022-11-11T01:48:23.802Z,101411.80
2022-11-11T01:51:04.994Z,101406.80
2022-11-11T01:54:00.767Z,101411.80
2022-11-11T01:56:55.594Z,101414.00
2022-11-11T01:59:48.434Z,101409.80
2022-11-11T02:02:52.821Z,101410.00
2022-11-11T02:05:43.429Z,101409.20
2022-11-11T02:08:35.597Z,101408.20
2022-11-11T02:11:44.172Z,101410.40
2022-11-11T02:14:36.337Z,101411.40
2022-11-11T02:17:26.935Z,101420.00
2022-11-11T02:20:20.275Z,101417.20
2022-11-11T02:23:40.889Z,101414.00
2022-11-11T02:26:30.431Z,101418.40
2022-11-11T02:29:21.303Z,101409.20
2022-11-11T02:32:07.936Z,101411.40
2022-11-11T02:34:54.274Z,101401.20
2022-11-11T02:37:45.747Z,101397.60
2022-11-11T02:41:12.445Z,101392.40
2022-11-11T02:43:58.485Z,101390.00
2022-11-11T02:46:44.912Z,101387.00
2022-11-11T02:49:31.891Z,101385.00
2022-11-11T02:52:17.990Z,101385.20
2022-11-11T02:55:05.895Z,101386.20
2022-11-11T02:57:52.679Z,101383.00
2022-11-11T03:00:39.169Z,101376.20
2022-11-11T03:03:26.243Z,101384.80
2022-11-11T03:06:13.257Z,101381.20
2022-11-11T03:08:59.753Z,101386.40
2022-11-11T03:11:46.412Z,101386.80
2022-11-11T03:14:33.099Z,101392.20
2022-11-11T03:17:38.657Z,101397.80
2022-11-11T03:20:43.908Z,101395.00
2022-11-11T03:23:30.566Z,101402.40
2022-11-11T03:26:16.969Z,101402.00
2022-11-11T03:29:04.381Z,101400.40
2022-11-11T03:31:50.666Z,101401.00
2022-11-11T03:34:37.005Z,101398.40
2022-11-11T03:37:42.233Z,101392.60
2022-11-11T03:40:28.653Z,101391.40
2022-11-11T03:43:18.559Z,101390.20
2022-11-11T03:46:06.161Z,101389.20
2022-11-11T03:48:52.397Z,101390.80
2022-11-11T03:51:38.490Z,101390.00
2022-11-11T03:54:24.859Z,101389.00
2022-11-11T03:57:29.931Z,101392.80
2022-11-11T04:00:20.688Z,101394.20
2022-11-11T04:03:29.058Z,101387.40
2022-11-11T04:06:34.342Z,101387.20
2022-11-11T04:09:39.921Z,101387.60
2022-11-11T04:12:27.921Z,101386.20
2022-11-11T04:15:33.308Z,101379.40
2022-11-11T04:18:40.028Z,101382.60
2022-11-11T04:21:45.143Z,101378.20
2022-11-11T04:24:50.446Z,101380.00
2022-11-11T04:27:36.813Z,101386.20
2022-11-11T04:30:23.144Z,101388.40
2022-11-11T04:33:10.332Z,101387.60
2022-11-11T04:35:56.799Z,101390.80
2022-11-11T04:39:02.013Z,101388.60
2022-11-11T04:42:07.237Z,101381.40
2022-11-11T04:45:13.664Z,101381.00
2022-11-11T04:48:09.274Z,101384.20
2022-11-11T04:50:55.667Z,101376.80
2022-11-11T04:53:41.813Z,101380.20
2022-11-11T04:56:46.878Z,101379.40
2022-11-11T04:59:33.371Z,101373.40
2022-11-11T05:02:38.432Z,101370.80
2022-11-11T05:05:26.203Z,101372.00
2022-11-11T05:08:31.651Z,101372.80
2022-11-11T05:11:19.585Z,101383.00
2022-11-11T05:14:25.531Z,101390.20
2022-11-11T05:17:30.926Z,101390.60
2022-11-11T05:20:38.895Z,101392.60
2022-11-11T05:23:48.386Z,101399.80
2022-11-11T05:26:35.221Z,101395.00
2022-11-11T05:29:21.640Z,101402.40
2022-11-11T05:32:09.329Z,101399.80
2022-11-11T05:34:56.073Z,101400.80
2022-11-11T05:37:43.393Z,101407.40
2022-11-11T05:40:29.597Z,101408.80
2022-11-11T05:43:15.990Z,101405.60
2022-11-11T05:46:02.161Z,101412.80
2022-11-11T05:49:07.520Z,101414.40
2022-11-11T05:51:55.703Z,101420.80
2022-11-11T05:54:43.075Z,101427.80
2022-11-11T05:57:29.201Z,101422.00
2022-11-11T06:00:16.227Z,101425.00
2022-11-11T06:03:05.903Z,101430.60
2022-11-11T06:05:52.818Z,101428.60
2022-11-11T06:08:40.860Z,101433.40
2022-11-11T06:11:32.483Z,101437.00
2022-11-11T06:14:19.544Z,101432.40
2022-11-11T06:17:05.954Z,101432.00
2022-11-11T06:19:52.262Z,101435.40
2022-11-11T06:22:57.299Z,101435.40
2022-11-11T06:26:02.307Z,101431.20
2022-11-11T06:28:56.082Z,101434.60
2022-11-11T06:31:43.219Z,101442.20
2022-11-11T06:34:29.611Z,101442.40
2022-11-11T06:37:15.745Z,101439.80
2022-11-11T06:40:02.069Z,101442.60
2022-11-11T06:42:48.211Z,101447.60
2022-11-11T06:45:36.296Z,101446.80
2022-11-11T06:48:24.901Z,101444.60
2022-11-11T06:51:12.591Z,101449.40
2022-11-11T06:53:59.306Z,101451.20
2022-11-11T06:56:48.734Z,101449.20
2022-11-11T06:59:34.973Z,101454.20
2022-11-11T07:02:21.350Z,101466.60
2022-11-11T07:05:08.049Z,101465.60
2022-11-11T07:07:54.397Z,101469.20
2022-11-11T07:10:46.171Z,101468.00
2022-11-11T07:13:32.663Z,101467.40
2022-11-11T07:16:18.878Z,101470.80
2022-11-11T07:19:05.414Z,101479.00
2022-11-11T07:21:51.621Z,101489.60
2022-11-11T07:24:38.156Z,101487.60
2022-11-11T07:27:24.582Z,101490.60
2022-11-11T07:30:12.483Z,101493.60
2022-11-11T07:32:59.109Z,101501.60
2022-11-11T07:35:45.658Z,101499.80
2022-11-11T07:38:32.175Z,101500.80
2022-11-11T07:41:18.609Z,101497.00
2022-11-11T07:44:04.879Z,101503.80
2022-11-11T07:46:51.067Z,101508.20
2022-11-11T07:49:37.462Z,101511.20
2022-11-11T07:52:23.935Z,101513.40
2022-11-11T07:55:10.203Z,101517.40
2022-11-11T07:57:58.353Z,101520.20
2022-11-11T08:00:44.756Z,101515.60
2022-11-11T08:03:30.921Z,101513.00
2022-11-11T08:06:22.325Z,101516.60
2022-11-11T08:09:08.529Z,101515.80
2022-11-11T08:12:16.950Z,101523.00
2022-11-11T08:15:08.441Z,101524.80
2022-11-11T08:17:55.169Z,101522.00
2022-11-11T08:20:45.072Z,101526.00
2022-11-11T08:24:22.537Z,101527.40
2022-11-11T08:26:41.732Z,101529.40
2022-11-11T08:29:27.869Z,101534.20
2022-11-11T08:32:14.271Z,101536.80
2022-11-11T08:35:00.547Z,101544.20
2022-11-11T08:37:47.002Z,101543.20
2022-11-11T08:40:33.323Z,101552.80
2022-11-11T08:43:21.091Z,101545.60
2022-11-11T08:46:07.541Z,101548.40
2022-11-11T08:48:53.941Z,101548.40
2022-11-11T08:51:44.654Z,101553.20
2022-11-11T08:54:32.679Z,101555.60
2022-11-11T08:57:19.266Z,101553.20
2022-11-11T09:00:06.977Z,101563.00
2022-11-11T09:02:53.349Z,101564.80
2022-11-11T09:05:41.284Z,101568.60
2022-11-11T09:08:27.838Z,101569.40
2022-11-11T09:11:14.382Z,101579.00
2022-11-11T09:14:00.816Z,101582.60
2022-11-11T09:16:47.248Z,101581.80
2022-11-11T09:19:33.503Z,101588.00
2022-11-11T09:22:19.702Z,101584.00
2022-11-11T09:25:06.864Z,101592.40
2022-11-11T09:28:01.590Z,101593.40
2022-11-11T09:30:48.186Z,101606.20
2022-11-11T09:33:34.631Z,101606.40
2022-11-11T09:36:21.536Z,101606.00
2022-11-11T09:39:08.186Z,101609.00
2022-11-11T09:42:30.898Z,101610.60
2022-11-11T09:46:02.205Z,101606.00
2022-11-11T09:49:11.883Z,101615.00
2022-11-11T09:52:21.991Z,101619.80
2022-11-11T09:55:35.028Z,101622.80
2022-11-11T09:58:25.826Z,101631.20
2022-11-11T10:01:54.008Z,101629.00
2022-11-11T10:05:02.713Z,101639.00
2022-11-11T10:08:07.161Z,101642.80
2022-11-11T10:10:56.708Z,101645.40
2022-11-11T10:13:43.203Z,101650.40
2022-11-11T10:17:13.874Z,101656.60
2022-11-11T10:20:24.772Z,101659.40
2022-11-11T10:23:17.889Z,101665.60
2022-11-11T10:26:21.396Z,101667.60
2022-11-11T10:29:19.800Z,101669.40
2022-11-11T10:32:23.206Z,101668.00
2022-11-11T10:35:23.058Z,101671.40
2022-11-11T10:38:58.642Z,101677.20
2022-11-11T10:41:49.415Z,101674.60
2022-11-11T10:44:36.337Z,101668.40
2022-11-11T10:47:39.617Z,101676.20
2022-11-11T10:50:57.518Z,101669.20
2022-11-11T10:54:08.790Z,101664.00
2022-11-11T10:57:15.957Z,101663.60
2022-11-11T11:00:15.709Z,101666.20
2022-11-11T11:03:21.646Z,101671.40
2022-11-11T11:06:31.216Z,101675.00
2022-11-11T11:09:37.272Z,101671.80
2022-11-11T11:12:45.421Z,101675.00
2022-11-11T11:15:37.782Z,101671.60
2022-11-11T11:18:25.820Z,101668.80
2022-11-11T11:21:12.774Z,101673.20
2022-11-11T11:23:59.504Z,101673.60
2022-11-11T11:26:52.336Z,101673.60
2022-11-11T11:29:44.944Z,101676.40
2022-11-11T11:32:32.791Z,101674.80
2022-11-11T11:35:40.898Z,101675.20
2022-11-11T11:38:43.477Z,101678.20
2022-11-11T11:41:50.324Z,101675.20
2022-11-11T11:44:39.168Z,101677.40
2022-11-11T11:47:43.255Z,101684.00
2022-11-11T11:50:52.545Z,101683.60
2022-11-11T11:53:57.414Z,101683.80
2022-11-11T11:56:50.953Z,101685.40
2022-11-11T11:59:52.039Z,101684.00
2022-11-11T12:03:23.275Z,101680.60
2022-11-11T12:06:33.253Z,101678.80
2022-11-11T12:09:26.807Z,101683.60
2022-11-11T12:12:47.128Z,101685.80
2022-11-11T12:16:03.726Z,101684.20
2022-11-11T12:19:33.871Z,101687.40
2022-11-11T12:22:57.080Z,101685.20
2022-11-11T12:26:07.258Z,101679.60
2022-11-11T12:29:19.616Z,101682.60
2022-11-11T12:32:51.911Z,101679.20
2022-11-11T12:36:03.803Z,101672.40
2022-11-11T12:39:26.838Z,101667.80
2022-11-11T12:42:43.023Z,101663.60
2022-11-11T12:46:17.695Z,101664.80
2022-11-11T12:49:37.861Z,101668.40
2022-11-11T12:52:57.545Z,101666.80
2022-11-11T12:56:14.346Z,101667.80
2022-11-11T12:59:15.344Z,101660.60
2022-11-11T13:02:33.474Z,101664.40
2022-11-11T13:05:29.246Z,101667.40
2022-11-11T13:08:52.033Z,101669.80
2022-11-11T13:12:01.527Z,101668.40
2022-11-11T13:15:20.963Z,101672.00
2022-11-11T13:18:25.168Z,101666.20
2022-11-11T13:21:22.809Z,101665.00
2022-11-11T13:24:15.809Z,101666.40
2022-11-11T13:27:19.616Z,101664.60
2022-11-11T13:30:40.210Z,101666.60
2022-11-11T13:33:39.036Z,101660.00
2022-11-11T13:36:29.447Z,101659.80
2022-11-11T13:39:32.587Z,101660.40
2022-11-11T13:42:28.124Z,101660.80
2022-11-11T13:45:35.942Z,101658.80
2022-11-11T13:48:48.663Z,101650.00
2022-11-11T13:51:43.591Z,101661.80
2022-11-11T13:54:42.535Z,101659.60
2022-11-11T13:57:33.192Z,101662.20
2022-11-11T14:00:22.683Z,101665.40
2022-11-11T14:03:31.436Z,101664.60
2022-11-11T14:06:18.123Z,101658.60
2022-11-11T14:09:05.110Z,101659.60
2022-11-11T14:12:11.831Z,101655.60
2022-11-11T14:14:58.136Z,101651.80
2022-11-11T14:17:45.715Z,101652.60
2022-11-11T14:20:43.368Z,101649.60
2022-11-11T14:23:35.419Z,101645.20
2022-11-11T14:26:27.842Z,101643.40
2022-11-11T14:29:20.323Z,101635.60
2022-11-11T14:32:37.598Z,101635.20
2022-11-11T14:35:35.126Z,101641.40
2022-11-11T14:38:39.414Z,101641.80
2022-11-11T14:41:40.666Z,101639.00
2022-11-11T14:44:29.766Z,101639.40
2022-11-11T14:47:25.020Z,101639.80
2022-11-11T14:50:37.966Z,101648.80
2022-11-11T14:53:37.559Z,101645.80
2022-11-11T14:56:27.899Z,101650.80
2022-11-11T14:59:19.102Z,101652.20
2022-11-11T15:02:20.139Z,101656.80
2022-11-11T15:05:16.445Z,101654.80
2022-11-11T15:08:58.040Z,101660.40
2022-11-11T15:12:04.892Z,101666.80
2022-11-11T15:15:16.007Z,101662.20
2022-11-11T15:18:39.099Z,101665.80
2022-11-11T15:21:37.209Z,101656.60
2022-11-11T15:24:41.923Z,101650.20
2022-11-11T15:27:50.587Z,101644.20
2022-11-11T15:31:19.754Z,101643.80
2022-11-11T15:34:32.470Z,101651.80
2022-11-11T15:37:22.633Z,101648.40
2022-11-11T15:40:20.870Z,101656.40
2022-11-11T15:43:33.494Z,101658.80
2022-11-11T15:46:28.691Z,101658.40
2022-11-11T15:49:47.713Z,101659.40
2022-11-11T15:52:35.976Z,101665.00
2022-11-11T15:55:32.482Z,101660.20
2022-11-11T15:58:28.137Z,101664.20
2022-11-11T16:01:16.497Z,101666.20
2022-11-11T16:04:07.523Z,101657.80
2022-11-11T16:06:54.133Z,101655.60
2022-11-11T16:09:40.508Z,101653.80
2022-11-11T16:12:43.886Z,101655.40
2022-11-11T16:15:42.563Z,101660.20
2022-11-11T16:18:54.271Z,101663.60
2022-11-11T16:22:05.736Z,101666.20
2022-11-11T16:24:53.596Z,101667.60
2022-11-11T16:27:39.758Z,101671.00
2022-11-11T16:30:37.993Z,101673.80
2022-11-11T16:33:27.372Z,101676.60
2022-11-11T16:36:13.731Z,101680.60
2022-11-11T16:39:28.841Z,101683.60
2022-11-11T16:42:24.823Z,101689.40
2022-11-11T16:45:23.248Z,101691.80
2022-11-11T16:48:33.666Z,101690.80
2022-11-11T16:51:46.621Z,101693.20
2022-11-11T16:54:40.361Z,101693.60
2022-11-11T16:57:33.502Z,101697.00
2022-11-11T17:00:23.503Z,101713.20
2022-11-11T17:03:22.983Z,101714.60
2022-11-11T17:06:10.061Z,101711.80
2022-11-11T17:08:56.729Z,101715.20
2022-11-11T17:11:45.715Z,101713.00
2022-11-11T17:14:38.294Z,101713.20
2022-11-11T17:17:24.937Z,101717.60
2022-11-11T17:20:16.416Z,101719.60
2022-11-11T17:23:06.339Z,101719.00
2022-11-11T17:25:57.630Z,101724.40
2022-11-11T17:28:44.453Z,101729.80
2022-11-11T17:31:31.088Z,101734.40
2022-11-11T17:34:17.195Z,101734.80
2022-11-11T17:37:03.565Z,101739.80
2022-11-11T17:39:50.666Z,101745.00
2022-11-11T17:42:37.335Z,101744.00
2022-11-11T17:45:23.965Z,101743.40
2022-11-11T17:48:11.270Z,101742.60
2022-11-11T17:50:58.183Z,101750.60
2022-11-11T17:53:44.344Z,101746.80
2022-11-11T17:56:30.790Z,101752.00
2022-11-11T17:59:17.022Z,101759.60
2022-11-11T18:02:03.905Z,101766.80
2022-11-11T18:04:50.589Z,101772.20
2022-11-11T18:07:39.133Z,101771.40
2022-11-11T18:10:29.635Z,101772.00
2022-11-11T18:13:15.932Z,101777.80
2022-11-11T18:16:06.009Z,101784.60
2022-11-11T18:18:54.478Z,101787.20
2022-11-11T18:21:44.242Z,101796.40
2022-11-11T18:24:30.357Z,101798.00
2022-11-11T18:27:17.052Z,101804.40
2022-11-11T18:30:04.321Z,101797.40
2022-11-11T18:32:51.084Z,101797.60
2022-11-11T18:35:37.579Z,101801.00
2022-11-11T18:38:23.714Z,101795.00
2022-11-11T18:41:14.692Z,101801.60
2022-11-11T18:44:00.830Z,101805.00
2022-11-11T18:46:47.619Z,101812.80
2022-11-11T18:49:33.814Z,101820.40
2022-11-11T18:52:20.050Z,101822.20
2022-11-11T18:55:07.053Z,101826.40
2022-11-11T18:57:53.690Z,101829.80
2022-11-11T19:00:41.404Z,101833.60
2022-11-11T19:03:28.187Z,101835.80
2022-11-11T19:06:15.331Z,101837.60
2022-11-11T19:09:06.495Z,101837.00
2022-11-11T19:11:53.386Z,101833.40
2022-11-11T19:14:39.710Z,101841.40
2022-11-11T19:17:25.885Z,101846.40
2022-11-11T19:20:12.113Z,101846.40
2022-11-11T19:22:58.305Z,101845.80
2022-11-11T19:25:44.554Z,101851.60
2022-11-11T19:28:30.699Z,101853.20
2022-11-11T19:31:21.251Z,101844.60
2022-11-11T19:34:10.641Z,101846.00
2022-11-11T19:36:57.185Z,101847.40
2022-11-11T19:39:43.773Z,101849.40
2022-11-11T19:42:29.974Z,101850.40
2022-11-11T19:45:16.963Z,101846.60
2022-11-11T19:48:03.731Z,101847.60
2022-11-11T19:50:50.281Z,101851.20
2022-11-11T19:53:37.172Z,101855.40
2022-11-11T19:56:28.457Z,101854.60
2022-11-11T19:59:14.558Z,101862.20
2022-11-11T20:02:00.736Z,101858.20
2022-11-11T20:04:46.844Z,101855.40
2022-11-11T20:07:33.417Z,101860.20
2022-11-11T20:10:19.813Z,101862.00
2022-11-11T20:13:06.521Z,101857.20
2022-11-11T20:15:53.123Z,101862.40
2022-11-11T20:18:39.696Z,101867.60
2022-11-11T20:21:27.728Z,101874.60
2022-11-11T20:24:13.970Z,101882.40
2022-11-11T20:27:00.307Z,101881.40
2022-11-11T20:29:47.063Z,101880.00
2022-11-11T20:32:33.305Z,101880.60
2022-11-11T20:35:19.654Z,101881.20
2022-11-11T20:38:06.012Z,101883.40
2022-11-11T20:41:04.897Z,101872.40
2022-11-11T20:43:51.462Z,101874.00
2022-11-11T20:46:37.826Z,101880.60
2022-11-11T20:49:24.156Z,101875.20
2022-11-11T20:52:12.429Z,101873.60
2022-11-11T20:54:59.250Z,101871.20
2022-11-11T20:57:45.642Z,101873.20
2022-11-11T21:00:32.114Z,101877.60
2022-11-11T21:03:18.260Z,101879.40
2022-11-11T21:06:12.269Z,101879.00
2022-11-11T21:08:59.538Z,101881.80
2022-11-11T21:11:45.761Z,101874.60
2022-11-11T21:14:32.260Z,101877.40
2022-11-11T21:17:18.579Z,101878.40
2022-11-11T21:20:05.579Z,101872.60
2022-11-11T21:22:52.849Z,101877.00
2022-11-11T21:25:39.490Z,101873.40
2022-11-11T21:28:25.723Z,101879.20
2022-11-11T21:31:22.469Z,101881.40
2022-11-11T21:34:12.553Z,101884.80
2022-11-11T21:36:58.830Z,101882.60
2022-11-11T21:39:45.139Z,101882.60
2022-11-11T21:42:31.422Z,101888.80
2022-11-11T21:45:17.644Z,101895.20
2022-11-11T21:48:04.337Z,101892.00
2022-11-11T21:50:50.899Z,101897.20
2022-11-11T21:53:41.929Z,101893.00
2022-11-11T21:56:30.879Z,101899.00
2022-11-11T21:59:17.931Z,101902.20
2022-11-11T22:02:04.045Z,101905.60
2022-11-11T22:04:50.574Z,101904.80
2022-11-11T22:07:36.880Z,101908.80
2022-11-11T22:10:23.175Z,101911.20
2022-11-11T22:13:09.838Z,101913.80
2022-11-11T22:16:06.735Z,101912.60
2022-11-11T22:18:56.930Z,101912.40
2022-11-11T22:21:45.965Z,101911.40
2022-11-11T22:24:32.402Z,101910.60
2022-11-11T22:27:18.674Z,101910.20
2022-11-11T22:30:05.615Z,101907.00
2022-11-11T22:32:55.142Z,101906.40
2022-11-11T22:35:41.801Z,101906.40
2022-11-11T22:38:29.136Z,101910.00
2022-11-11T22:41:23.007Z,101904.80
2022-11-11T22:44:09.660Z,101899.80
2022-11-11T22:46:56.565Z,101898.40
2022-11-11T22:49:43.082Z,101899.60
2022-11-11T22:52:29.762Z,101903.80
2022-11-11T22:55:16.206Z,101905.60
2022-11-11T22:58:02.421Z,101904.60
2022-11-11T23:00:48.717Z,101902.60
2022-11-11T23:03:37.530Z,101905.80
2022-11-11T23:06:28.886Z,101901.80
2022-11-11T23:09:15.558Z,101901.60
2022-11-11T23:12:02.326Z,101905.80
2022-11-11T23:14:49.011Z,101911.40
2022-11-11T23:17:35.309Z,101905.40
2022-11-11T23:20:21.625Z,101912.40
2022-11-11T23:23:08.054Z,101912.60
2022-11-11T23:25:55.500Z,101921.00
2022-11-11T23:28:44.023Z,101921.20
2022-11-11T23:31:32.641Z,101916.80
2022-11-11T23:34:19.050Z,101916.40
2022-11-11T23:37:08.096Z,101911.40
2022-11-11T23:39:54.545Z,101919.80
2022-11-11T23:42:40.736Z,101915.20
2022-11-11T23:45:27.046Z,101914.80
2022-11-11T23:48:13.430Z,101914.40
2022-11-11T23:51:01.516Z,101910.60
2022-11-11T23:53:48.245Z,101897.60
2022-11-11T23:56:34.592Z,101897.20
2022-11-11T23:59:21.141Z,101892.60
